KASD

Slidell Airport

Slidell, Louisiana, USA
METAR KASD 242353Z AUTO 34006KT 10SM FEW055 24/12 A2996 RMK AO2 SLP144 T02390122 10267 20239 53009
Observed Flight Rules
Apr-24 @ 23:53 UTC (49 minutes ago) Visual Flight Rules
Wind Visibility Clouds
340° at 6 knots 10 miles
  • Few at 5,500' AGL
Temperatures Readings
Current 24°C / 75°F
Dewpoint 12°C / 54°F
Humidity 47%
Altimeter 29.96" Hg
Pressure 1014.4 hPa
Elevation 9
METAR KASD 242353Z AUTO 34006KT 10SM FEW055 24/12 A2996 RMK AO2 SLP144 T02390122 10267 20239 53009
Observed Flight Rules
Apr-24 @ 23:53 UTC
(49 minutes ago)
VFR
Wind Visibility
340° at 6 knots 10 miles
Clouds
  • Few at 5,500' AGL
Temperature Dewpoint
24°C / 75°F 12°C / 54°F
Humidity Altimeter Pressure
47% 29.96" Hg 1014.4 hPa